Tuscaloosa, AL

1:15 AM CDT en Agosto 30, 2014 (GMT -0500)
TDOT | Change Station
CLOSE
Current Station
Estación meteorológica personal
Location: Tuscaloosa, AL
Altura: 200 ft
Estaciones meteorológicas cercanas

Alt 200 ft 33.20 °N, 87.57 °W | Updated 4 minutes ago

Clear
Despejado
82.9 ° F
Sensación térmica 86 ° F
N
3.0
Viento Variable Viento desde SSE

Hoy
Alta -- | Baja -- ° F
--% Posibilidad de precipitaciones
Ayer
Alta -- | Baja -- ° F
Precip. -- pul
6:23 AM 7:17 PM
Creciente, 19% visible
Presión 30.04 pul
Visibilidad 10.0 Millas
Nubes Despejado
Índice de calor 86 ° F
Punto de rocío 68 ° F
Humedad 61%
Precipitaciones 0.00 pul
Espesor de la nieve No disponible.
UV 0 de una escala de 12
Polen 9.50 de una escala de 12
Ozono Buena
PM2.5 Moderada
Flu Activity No disponible.
METAR KTCL 300553Z AUTO 00000KT 10SM CLR 24/21 A3004 RMK AO2 SLP171 T02390211 10311 20233 403560183 51010

More Conditions Fewer Conditions

Presión 30.04 pul
Visibilidad 10.0 Millas
Nubes Despejado
Índice de calor 86 ° F
Punto de rocío 68 ° F
Humedad 61%
Precipitaciones 0.00 pul
Espesor de la nieve No disponible.
UV 0 de una escala de 12
Polen 9.50 de una escala de 12
Ozono Buena
PM2.5 Moderada
Flu Activity No disponible.
METAR KTCL 300553Z AUTO 00000KT 10SM CLR 24/21 A3004 RMK AO2 SLP171 T02390211 10311 20233 403560183 51010

More Conditions Fewer Conditions

10-Day Weather Forecast

Almanac

Astronomía

Aug. 30, 2014 Salida Puesta
Hora real 6:23 AM CDT 7:17 PM CDT
Crepúsculo civil 5:57 AM CDT 7:43 PM CDT
Crepúsculo náutico 5:27 AM CDT 8:13 PM CDT
Crepúsculo astronómico 4:57 AM CDT 8:43 PM CDT
Luna 10:54 AM CDT 10:09 PM CDT
Horas de luz 13h 45m
Horas de luz
12h 54m
Tomorrow will be 1m 57s shorter.
Creciente, 19% of the Moon is Illuminated
Hoy
Creciente
Sep 2
Cuarto creciente
Sep 8
Luna llena
Sep 15
Cuarto menguante
Sep 24
Nueva

Extremos de hoy

Máximos del estado Bajos del estado

Community

WunderPhotos

Upload Photos

1,748,465 ¡fotos cargadas!

Nearby

Calidad del aire

  Calidad del aire Índice AQ Contaminante
Ayer Moderada
OZONE
Ayer Buena
PM10
Real Moderada
PM2.5
Real Buena
OZONE
Viernes Moderada
PM2.5
Viernes Moderada
OZONE
Sábado Moderada
PM2.5
Sábado Buena
OZONE
Domingo Buena
OZONE
Domingo Buena
PM2.5
Lunes Buena
PM2.5
Lunes Buena
OZONE
Martes Buena
OZONE

Grosos de nieve

Estación Profundido Altura
No tenemos constancia de nieve nueva.

Actividad de terremotos

Ciudad Distance Mag. Tiempo y dato
No hay informes recientes de la actividad sísmica.
Magnitud mínima muestra es 2,5.

Temperaturas de aguas costeras

Lugar Temperatura
Sin partes meteorológicos de las estaciones

Estaciones meteorológicas cercanas